sensor_id;sensor_type;location;lat;lon;timestamp;P1;durP1;ratioP1;P2;durP2;ratioP2
39612;SDS011;25303;48.896;13.342;2024-03-29T00:03:24;4.80;;;3.20;;
39612;SDS011;25303;48.896;13.342;2024-03-29T00:13:27;5.20;;;2.97;;
39612;SDS011;25303;48.896;13.342;2024-03-29T00:23:28;5.95;;;3.05;;
39612;SDS011;25303;48.896;13.342;2024-03-29T00:33:30;5.63;;;2.92;;
39612;SDS011;25303;48.896;13.342;2024-03-29T00:43:31;4.22;;;2.30;;
39612;SDS011;25303;48.896;13.342;2024-03-29T00:53:34;3.97;;;2.22;;
39612;SDS011;25303;48.896;13.342;2024-03-29T01:03:35;4.20;;;2.60;;
39612;SDS011;25303;48.896;13.342;2024-03-29T01:13:37;2.97;;;1.80;;
39612;SDS011;25303;48.896;13.342;2024-03-29T01:23:38;2.15;;;1.50;;
39612;SDS011;25303;48.896;13.342;2024-03-29T01:33:40;2.80;;;1.38;;
39612;SDS011;25303;48.896;13.342;2024-03-29T01:43:41;4.43;;;1.52;;
39612;SDS011;25303;48.896;13.342;2024-03-29T01:53:45;2.55;;;1.70;;
39612;SDS011;25303;48.896;13.342;2024-03-29T02:03:48;1.13;;;0.80;;
39612;SDS011;25303;48.896;13.342;2024-03-29T02:13:54;0.93;;;0.70;;
39612;SDS011;25303;48.896;13.342;2024-03-29T02:24:00;2.28;;;0.90;;
39612;SDS011;25303;48.896;13.342;2024-03-29T02:34:06;1.63;;;0.85;;
39612;SDS011;25303;48.896;13.342;2024-03-29T02:44:11;1.77;;;0.82;;
39612;SDS011;25303;48.896;13.342;2024-03-29T02:54:13;1.30;;;0.70;;
39612;SDS011;25303;48.896;13.342;2024-03-29T03:04:16;1.00;;;0.70;;
39612;SDS011;25303;48.896;13.342;2024-03-29T03:14:18;0.77;;;0.43;;
39612;SDS011;25303;48.896;13.342;2024-03-29T03:24:21;1.38;;;0.50;;
39612;SDS011;25303;48.896;13.342;2024-03-29T03:34:23;0.75;;;0.43;;
39612;SDS011;25303;48.896;13.342;2024-03-29T03:44:26;0.50;;;0.40;;
39612;SDS011;25303;48.896;13.342;2024-03-29T03:54:29;1.02;;;0.40;;
39612;SDS011;25303;48.896;13.342;2024-03-29T04:04:32;0.63;;;0.40;;
39612;SDS011;25303;48.896;13.342;2024-03-29T04:14:34;0.52;;;0.40;;
39612;SDS011;25303;48.896;13.342;2024-03-29T04:24:37;1.05;;;0.40;;
39612;SDS011;25303;48.896;13.342;2024-03-29T04:34:39;0.40;;;0.25;;
39612;SDS011;25303;48.896;13.342;2024-03-29T04:44:42;0.70;;;0.30;;
39612;SDS011;25303;48.896;13.342;2024-03-29T04:54:44;0.50;;;0.47;;
39612;SDS011;25303;48.896;13.342;2024-03-29T05:04:48;0.50;;;0.30;;
39612;SDS011;25303;48.896;13.342;2024-03-29T05:14:50;0.35;;;0.30;;
39612;SDS011;25303;48.896;13.342;2024-03-29T05:24:53;1.20;;;0.35;;
39612;SDS011;25303;48.896;13.342;2024-03-29T05:34:55;0.28;;;0.28;;
39612;SDS011;25303;48.896;13.342;2024-03-29T05:44:59;1.17;;;0.40;;
39612;SDS011;25303;48.896;13.342;2024-03-29T05:55:01;1.13;;;0.30;;
39612;SDS011;25303;48.896;13.342;2024-03-29T06:05:08;0.52;;;0.30;;
39612;SDS011;25303;48.896;13.342;2024-03-29T06:15:10;0.22;;;0.20;;
39612;SDS011;25303;48.896;13.342;2024-03-29T06:25:31;0.98;;;0.40;;
39612;SDS011;25303;48.896;13.342;2024-03-29T06:35:33;1.92;;;0.75;;
39612;SDS011;25303;48.896;13.342;2024-03-29T06:45:39;0.70;;;0.30;;
39612;SDS011;25303;48.896;13.342;2024-03-29T06:55:43;1.75;;;0.32;;
39612;SDS011;25303;48.896;13.342;2024-03-29T07:05:46;0.90;;;0.28;;
39612;SDS011;25303;48.896;13.342;2024-03-29T07:15:50;1.20;;;0.30;;
39612;SDS011;25303;48.896;13.342;2024-03-29T07:26:00;1.90;;;0.30;;
39612;SDS011;25303;48.896;13.342;2024-03-29T07:36:03;0.93;;;0.28;;
39612;SDS011;25303;48.896;13.342;2024-03-29T07:46:07;0.82;;;0.40;;
39612;SDS011;25303;48.896;13.342;2024-03-29T07:56:10;1.90;;;0.32;;
39612;SDS011;25303;48.896;13.342;2024-03-29T08:06:13;1.50;;;0.40;;
39612;SDS011;25303;48.896;13.342;2024-03-29T08:16:17;1.95;;;0.40;;
39612;SDS011;25303;48.896;13.342;2024-03-29T08:26:21;0.75;;;0.30;;
39612;SDS011;25303;48.896;13.342;2024-03-29T08:36:23;0.47;;;0.20;;
39612;SDS011;25303;48.896;13.342;2024-03-29T08:46:26;0.60;;;0.30;;
39612;SDS011;25303;48.896;13.342;2024-03-29T08:56:29;0.93;;;0.30;;
39612;SDS011;25303;48.896;13.342;2024-03-29T09:06:32;0.52;;;0.20;;
39612;SDS011;25303;48.896;13.342;2024-03-29T09:16:34;0.70;;;0.20;;
39612;SDS011;25303;48.896;13.342;2024-03-29T09:26:37;0.30;;;0.20;;
39612;SDS011;25303;48.896;13.342;2024-03-29T09:36:40;0.73;;;0.30;;
39612;SDS011;25303;48.896;13.342;2024-03-29T09:46:44;0.73;;;0.30;;
39612;SDS011;25303;48.896;13.342;2024-03-29T09:56:46;0.73;;;0.22;;
39612;SDS011;25303;48.896;13.342;2024-03-29T10:06:52;1.02;;;0.20;;
39612;SDS011;25303;48.896;13.342;2024-03-29T10:16:55;1.08;;;0.50;;
39612;SDS011;25303;48.896;13.342;2024-03-29T10:27:00;0.57;;;0.30;;
39612;SDS011;25303;48.896;13.342;2024-03-29T10:37:02;0.40;;;0.20;;
39612;SDS011;25303;48.896;13.342;2024-03-29T10:47:07;1.83;;;0.30;;
39612;SDS011;25303;48.896;13.342;2024-03-29T10:57:12;0.35;;;0.20;;
39612;SDS011;25303;48.896;13.342;2024-03-29T11:07:20;0.32;;;0.30;;
39612;SDS011;25303;48.896;13.342;2024-03-29T11:17:23;0.20;;;0.20;;
39612;SDS011;25303;48.896;13.342;2024-03-29T11:27:27;1.15;;;0.38;;
39612;SDS011;25303;48.896;13.342;2024-03-29T11:37:29;0.85;;;0.50;;
39612;SDS011;25303;48.896;13.342;2024-03-29T11:47:33;2.08;;;0.40;;
39612;SDS011;25303;48.896;13.342;2024-03-29T11:57:36;2.05;;;0.32;;
39612;SDS011;25303;48.896;13.342;2024-03-29T12:07:42;0.40;;;0.20;;
39612;SDS011;25303;48.896;13.342;2024-03-29T12:17:52;0.50;;;0.30;;
39612;SDS011;25303;48.896;13.342;2024-03-29T12:27:57;1.88;;;0.47;;
39612;SDS011;25303;48.896;13.342;2024-03-29T12:38:00;1.15;;;0.32;;
39612;SDS011;25303;48.896;13.342;2024-03-29T12:48:08;0.28;;;0.22;;
39612;SDS011;25303;48.896;13.342;2024-03-29T12:58:11;0.63;;;0.20;;
39612;SDS011;25303;48.896;13.342;2024-03-29T13:08:15;0.47;;;0.28;;
39612;SDS011;25303;48.896;13.342;2024-03-29T13:18:18;0.77;;;0.30;;
39612;SDS011;25303;48.896;13.342;2024-03-29T13:28:21;0.60;;;0.30;;
39612;SDS011;25303;48.896;13.342;2024-03-29T13:38:23;0.40;;;0.30;;
39612;SDS011;25303;48.896;13.342;2024-03-29T13:48:28;0.85;;;0.30;;
39612;SDS011;25303;48.896;13.342;2024-03-29T13:58:30;0.40;;;0.30;;
39612;SDS011;25303;48.896;13.342;2024-03-29T14:08:33;0.80;;;0.30;;
39612;SDS011;25303;48.896;13.342;2024-03-29T14:18:36;0.47;;;0.30;;
39612;SDS011;25303;48.896;13.342;2024-03-29T14:28:39;0.93;;;0.40;;
39612;SDS011;25303;48.896;13.342;2024-03-29T14:38:41;1.35;;;0.38;;
39612;SDS011;25303;48.896;13.342;2024-03-29T14:48:45;0.95;;;0.32;;
39612;SDS011;25303;48.896;13.342;2024-03-29T14:58:46;0.40;;;0.25;;
39612;SDS011;25303;48.896;13.342;2024-03-29T15:08:52;0.40;;;0.20;;
39612;SDS011;25303;48.896;13.342;2024-03-29T15:18:54;1.13;;;0.45;;
39612;SDS011;25303;48.896;13.342;2024-03-29T15:28:58;0.88;;;0.35;;
39612;SDS011;25303;48.896;13.342;2024-03-29T15:39:11;1.20;;;0.63;;
39612;SDS011;25303;48.896;13.342;2024-03-29T15:49:16;1.40;;;0.60;;
39612;SDS011;25303;48.896;13.342;2024-03-29T15:59:19;2.53;;;1.38;;
39612;SDS011;25303;48.896;13.342;2024-03-29T16:09:24;1.23;;;0.80;;
39612;SDS011;25303;48.896;13.342;2024-03-29T16:19:26;0.63;;;0.30;;
39612;SDS011;25303;48.896;13.342;2024-03-29T16:29:30;0.65;;;0.30;;
39612;SDS011;25303;48.896;13.342;2024-03-29T16:39:32;0.98;;;0.30;;
39612;SDS011;25303;48.896;13.342;2024-03-29T16:49:35;1.02;;;0.55;;
39612;SDS011;25303;48.896;13.342;2024-03-29T16:59:37;1.70;;;0.38;;
39612;SDS011;25303;48.896;13.342;2024-03-29T17:09:41;0.30;;;0.20;;
39612;SDS011;25303;48.896;13.342;2024-03-29T17:19:43;0.57;;;0.30;;
39612;SDS011;25303;48.896;13.342;2024-03-29T17:29:47;3.20;;;0.50;;
39612;SDS011;25303;48.896;13.342;2024-03-29T17:39:49;1.30;;;0.40;;
39612;SDS011;25303;48.896;13.342;2024-03-29T17:49:53;0.50;;;0.30;;
39612;SDS011;25303;48.896;13.342;2024-03-29T17:59:55;0.70;;;0.40;;
39612;SDS011;25303;48.896;13.342;2024-03-29T18:09:58;1.33;;;0.60;;
39612;SDS011;25303;48.896;13.342;2024-03-29T18:20:00;0.43;;;0.30;;
39612;SDS011;25303;48.896;13.342;2024-03-29T18:30:06;0.75;;;0.45;;
39612;SDS011;25303;48.896;13.342;2024-03-29T18:40:09;0.65;;;0.40;;
39612;SDS011;25303;48.896;13.342;2024-03-29T18:50:14;1.25;;;0.60;;
39612;SDS011;25303;48.896;13.342;2024-03-29T19:00:16;1.70;;;0.60;;
39612;SDS011;25303;48.896;13.342;2024-03-29T19:10:21;0.93;;;0.50;;
39612;SDS011;25303;48.896;13.342;2024-03-29T19:20:23;1.25;;;0.60;;
39612;SDS011;25303;48.896;13.342;2024-03-29T19:30:26;1.65;;;0.60;;
39612;SDS011;25303;48.896;13.342;2024-03-29T19:40:28;1.98;;;0.40;;
39612;SDS011;25303;48.896;13.342;2024-03-29T19:50:31;1.08;;;0.43;;
39612;SDS011;25303;48.896;13.342;2024-03-29T20:00:33;0.77;;;0.50;;
39612;SDS011;25303;48.896;13.342;2024-03-29T20:10:37;0.77;;;0.40;;
39612;SDS011;25303;48.896;13.342;2024-03-29T20:20:45;0.93;;;0.40;;
39612;SDS011;25303;48.896;13.342;2024-03-29T20:30:49;1.85;;;0.50;;
39612;SDS011;25303;48.896;13.342;2024-03-29T20:40:51;1.33;;;0.40;;
39612;SDS011;25303;48.896;13.342;2024-03-29T20:50:58;1.45;;;0.52;;
39612;SDS011;25303;48.896;13.342;2024-03-29T21:01:00;3.85;;;0.65;;
39612;SDS011;25303;48.896;13.342;2024-03-29T21:11:04;3.10;;;0.60;;
39612;SDS011;25303;48.896;13.342;2024-03-29T21:21:06;4.72;;;0.75;;
39612;SDS011;25303;48.896;13.342;2024-03-29T21:31:09;1.48;;;0.57;;
39612;SDS011;25303;48.896;13.342;2024-03-29T21:41:12;5.10;;;1.00;;
39612;SDS011;25303;48.896;13.342;2024-03-29T21:51:17;5.50;;;0.93;;
39612;SDS011;25303;48.896;13.342;2024-03-29T22:01:19;8.43;;;1.33;;
39612;SDS011;25303;48.896;13.342;2024-03-29T22:11:24;9.68;;;1.40;;
39612;SDS011;25303;48.896;13.342;2024-03-29T22:21:26;11.98;;;1.55;;
39612;SDS011;25303;48.896;13.342;2024-03-29T22:31:31;11.90;;;1.80;;
39612;SDS011;25303;48.896;13.342;2024-03-29T22:41:34;10.50;;;1.50;;
39612;SDS011;25303;48.896;13.342;2024-03-29T22:51:37;17.50;;;2.25;;
39612;SDS011;25303;48.896;13.342;2024-03-29T23:01:39;12.20;;;1.92;;
39612;SDS011;25303;48.896;13.342;2024-03-29T23:11:44;20.27;;;1.88;;
39612;SDS011;25303;48.896;13.342;2024-03-29T23:21:46;21.25;;;3.20;;
39612;SDS011;25303;48.896;13.342;2024-03-29T23:31:49;20.85;;;2.45;;
39612;SDS011;25303;48.896;13.342;2024-03-29T23:41:51;22.88;;;2.42;;
39612;SDS011;25303;48.896;13.342;2024-03-29T23:51:54;15.15;;;2.38;;
